Time;durP1;ratioP1;P1;durP2;ratioP2;P2;SDS_P1;SDS_P2;PMS_P1;PMS_P2;Temp;Humidity;BMP_temperature;BMP_pressure;BME280_temperature;BME280_humidity;BME280_pressure;Samples;Min_cycle;Max_cycle;Signal;HPM_P1;HPM_P2
2022/04/25 00:01:08;;;;;;;6.80;4.43;;;9.10;99.90;;;;;;5089970;28;20024;-28
2022/04/25 00:03:34;;;;;;;12.45;3.97;;;9.20;99.90;;;;;;5094711;28;20016;-30
2022/04/25 00:06:00;;;;;;;12.23;4.22;;;9.20;99.90;;;;;;5092195;28;20028;-30
2022/04/25 00:08:25;;;;;;;10.27;5.57;;;9.10;99.90;;;;;;5091516;28;20024;-30
2022/04/25 00:10:51;;;;;;;7.80;4.35;;;9.20;99.90;;;;;;5089190;28;20103;-29
2022/04/25 00:13:16;;;;;;;6.40;4.03;;;9.10;99.90;;;;;;5092375;28;20499;-29
2022/04/25 00:15:42;;;;;;;6.05;3.83;;;9.10;99.90;;;;;;5091752;28;20020;-30
2022/04/25 00:18:08;;;;;;;10.85;5.13;;;9.20;99.90;;;;;;5092664;28;20020;-31
2022/04/25 00:20:34;;;;;;;8.32;4.25;;;9.20;99.90;;;;;;5091559;28;20469;-29
2022/04/25 00:23:06;;;;;;;11.65;4.43;;;9.20;99.90;;;;;;5089359;28;20048;-36
2022/04/25 00:25:35;;;;;;;10.88;3.97;;;9.20;99.90;;;;;;5103092;28;20388;-30
2022/04/25 00:28:02;;;;;;;10.95;4.05;;;9.20;99.90;;;;;;5090382;28;20027;-28
2022/04/25 00:30:28;;;;;;;8.52;4.32;;;9.20;99.90;;;;;;5091891;28;20044;-28
2022/04/25 00:32:55;;;;;;;11.07;4.65;;;9.20;99.90;;;;;;5092553;28;20035;-30
2022/04/25 00:35:20;;;;;;;9.25;4.65;;;9.10;99.90;;;;;;5092210;28;20575;-30
2022/04/25 00:37:46;;;;;;;11.25;4.40;;;9.10;99.90;;;;;;5092130;28;20123;-32
2022/04/25 00:40:12;;;;;;;9.95;5.03;;;9.10;99.90;;;;;;5092189;28;20028;-29
2022/04/25 00:42:39;;;;;;;11.25;4.32;;;9.10;99.90;;;;;;5090878;28;20523;-28
2022/04/25 00:45:05;;;;;;;7.97;4.85;;;9.00;99.90;;;;;;5091101;28;20317;-28
2022/04/25 00:47:31;;;;;;;7.07;4.10;;;9.00;99.90;;;;;;5096914;28;20476;-29
2022/04/25 00:49:57;;;;;;;14.18;4.35;;;9.00;99.90;;;;;;5094610;28;20035;-31
2022/04/25 00:52:22;;;;;;;7.43;4.20;;;9.00;99.90;;;;;;5094044;28;20376;-28
2022/04/25 00:54:49;;;;;;;12.23;5.93;;;9.00;99.90;;;;;;5093126;28;20456;-30
2022/04/25 00:57:15;;;;;;;7.18;4.55;;;9.00;99.90;;;;;;5091477;28;20062;-29
2022/04/25 00:59:41;;;;;;;9.85;4.80;;;9.00;99.90;;;;;;5092715;28;20110;-31
2022/04/25 01:02:07;;;;;;;8.30;4.45;;;9.00;99.90;;;;;;5091779;28;20536;-28
2022/04/25 01:04:32;;;;;;;14.30;5.15;;;9.10;99.90;;;;;;5095016;28;20099;-30
2022/04/25 01:06:58;;;;;;;11.25;4.78;;;9.10;99.90;;;;;;5094018;28;20206;-29
2022/04/25 01:09:25;;;;;;;7.57;4.57;;;9.20;99.90;;;;;;5102315;28;20024;-31
2022/04/25 01:11:52;;;;;;;7.40;4.45;;;9.10;99.90;;;;;;5094187;28;20043;-33
2022/04/25 01:14:20;;;;;;;11.55;4.13;;;9.10;99.90;;;;;;5093526;28;20016;-30
2022/04/25 01:16:47;;;;;;;15.27;5.75;;;9.10;99.90;;;;;;5093734;28;20012;-31
2022/04/25 01:19:13;;;;;;;10.88;5.00;;;9.10;99.90;;;;;;5094133;28;20499;-28
2022/04/25 01:21:42;;;;;;;12.52;5.43;;;9.10;99.90;;;;;;5095655;28;20024;-29
2022/04/25 01:29:38;;;;;;;12.07;5.30;;;9.20;99.90;;;;;;5087812;28;20086;-28
2022/04/25 01:32:05;;;;;;;10.63;4.55;;;9.20;99.90;;;;;;5092024;28;20028;-31
2022/04/25 01:34:32;;;;;;;11.05;4.88;;;9.20;99.90;;;;;;5095097;28;20032;-30
2022/04/25 01:36:58;;;;;;;12.38;4.90;;;9.30;99.90;;;;;;5097229;28;20039;-28
2022/04/25 01:39:24;;;;;;;11.25;4.85;;;9.20;99.90;;;;;;5094354;28;20027;-31
2022/04/25 01:41:50;;;;;;;7.22;4.95;;;9.20;99.90;;;;;;5096527;28;20028;-28
2022/04/25 01:44:15;;;;;;;8.98;4.78;;;9.20;99.90;;;;;;5103663;28;20031;-29
2022/04/25 01:46:41;;;;;;;8.55;4.68;;;9.30;99.90;;;;;;5097330;28;20031;-28
2022/04/25 01:49:06;;;;;;;7.55;4.85;;;9.30;99.90;;;;;;5096880;28;20032;-31
2022/04/25 01:51:50;;;;;;;9.95;4.65;;;9.30;99.90;;;;;;5093492;28;20464;-32
2022/04/25 01:54:26;;;;;;;14.25;5.13;;;9.30;99.90;;;;;;5096035;28;20023;-33
2022/04/25 01:56:56;;;;;;;15.50;5.57;;;9.40;99.90;;;;;;5091146;28;20032;-28
2022/04/25 01:59:22;;;;;;;8.95;5.18;;;9.40;99.90;;;;;;5093677;28;20020;-29
2022/04/25 02:01:49;;;;;;;11.57;4.50;;;9.40;99.90;;;;;;5096567;28;20051;-33
2022/04/25 02:04:15;;;;;;;12.27;5.18;;;9.30;99.90;;;;;;5099544;28;20028;-30
2022/04/25 02:06:41;;;;;;;9.82;5.47;;;9.30;99.90;;;;;;5093874;28;20093;-28
2022/04/25 02:09:08;;;;;;;10.32;5.22;;;9.30;99.90;;;;;;5093750;28;20028;-29
2022/04/25 02:11:34;;;;;;;7.13;4.65;;;9.30;99.90;;;;;;5093583;28;20024;-29
2022/04/25 02:14:00;;;;;;;13.85;5.35;;;9.30;99.90;;;;;;5104179;28;20058;-33
2022/04/25 02:16:26;;;;;;;18.40;5.70;;;9.30;99.90;;;;;;5090959;28;20090;-29
2022/04/25 02:18:53;;;;;;;11.82;5.38;;;9.30;99.90;;;;;;5092875;28;20024;-28
2022/04/25 02:21:19;;;;;;;11.90;5.07;;;9.30;99.90;;;;;;5107063;28;20492;-28
2022/04/25 02:23:45;;;;;;;11.80;5.10;;;9.30;99.90;;;;;;5093881;28;20028;-30
2022/04/25 02:26:11;;;;;;;13.90;6.22;;;9.30;99.90;;;;;;5093394;28;20468;-32
2022/04/25 02:28:37;;;;;;;13.38;5.75;;;9.30;99.90;;;;;;5092896;28;20088;-29
2022/04/25 02:31:05;;;;;;;16.73;5.93;;;9.30;99.90;;;;;;5089390;28;20024;-30
2022/04/25 02:33:32;;;;;;;14.60;5.63;;;9.40;99.90;;;;;;5101634;28;20024;-34
2022/04/25 02:35:58;;;;;;;15.32;5.53;;;9.40;99.90;;;;;;5092532;28;20033;-34
2022/04/25 02:38:24;;;;;;;10.02;5.25;;;9.40;99.90;;;;;;5091787;28;20109;-33
2022/04/25 02:41:04;;;;;;;11.95;5.45;;;9.40;99.90;;;;;;5092586;28;20078;-28
2022/04/25 02:43:34;;;;;;;16.52;5.78;;;9.40;99.90;;;;;;5104371;28;20430;-30
2022/04/25 02:46:01;;;;;;;11.77;5.53;;;9.40;99.90;;;;;;5092143;28;20032;-30
2022/04/25 02:48:26;;;;;;;18.85;5.47;;;9.40;99.90;;;;;;5095349;28;20028;-29
2022/04/25 02:50:52;;;;;;;13.00;5.75;;;9.30;99.90;;;;;;5093813;28;20024;-29
2022/04/25 02:53:18;;;;;;;15.52;5.60;;;9.30;99.90;;;;;;5093247;28;20020;-33
2022/04/25 02:55:43;;;;;;;13.00;5.40;;;9.30;99.90;;;;;;5099134;28;20024;-31
2022/04/25 02:58:09;;;;;;;10.40;5.18;;;9.30;99.90;;;;;;5092745;28;20024;-30
2022/04/25 03:00:35;;;;;;;13.20;5.30;;;9.30;99.90;;;;;;5092264;28;20039;-32
2022/04/25 03:03:01;;;;;;;13.43;6.35;;;9.30;99.90;;;;;;5091393;28;20039;-30
2022/04/25 03:05:27;;;;;;;13.05;6.38;;;9.30;99.90;;;;;;5092516;28;20028;-31
2022/04/25 03:07:53;;;;;;;13.45;7.00;;;9.30;99.90;;;;;;5092016;28;20111;-34
2022/04/25 03:10:18;;;;;;;12.63;4.85;;;9.30;99.90;;;;;;5099655;28;20084;-31
2022/04/25 03:12:44;;;;;;;17.13;6.35;;;9.40;99.90;;;;;;5093339;28;20483;-31
2022/04/25 03:15:09;;;;;;;14.90;5.72;;;9.40;99.90;;;;;;5092300;28;20476;-37
2022/04/25 03:17:35;;;;;;;15.98;6.05;;;9.50;99.90;;;;;;5091079;28;20492;-35
2022/04/25 03:20:01;;;;;;;11.55;5.78;;;9.50;99.90;;;;;;5091594;28;20031;-32
2022/04/25 03:22:26;;;;;;;13.68;5.95;;;9.50;99.90;;;;;;5091429;28;20036;-29
2022/04/25 03:24:52;;;;;;;12.25;6.05;;;9.50;99.90;;;;;;5093983;28;20479;-31
2022/04/25 03:27:18;;;;;;;11.35;5.45;;;9.50;99.90;;;;;;5093643;28;20103;-34
2022/04/25 03:29:43;;;;;;;12.00;5.72;;;9.40;99.90;;;;;;5092990;28;20028;-31
2022/04/25 03:32:09;;;;;;;18.20;6.38;;;9.50;99.90;;;;;;5090686;28;20170;-29
2022/04/25 03:34:37;;;;;;;13.70;5.72;;;9.40;99.90;;;;;;5094311;28;20023;-32
2022/04/25 03:37:03;;;;;;;;;;;9.40;99.90;;;;;;5098281;28;20132;-35
2022/04/25 03:39:29;;;;;;;13.02;5.53;;;9.40;99.90;;;;;;5087126;28;20392;-31
2022/04/25 03:41:55;;;;;;;19.67;5.32;;;9.50;99.90;;;;;;5092145;28;20484;-34
2022/04/25 03:44:21;;;;;;;10.07;6.03;;;9.40;99.90;;;;;;5091281;28;20024;-37
2022/04/25 03:46:46;;;;;;;12.50;5.95;;;9.50;99.90;;;;;;5092855;28;20042;-31
2022/04/25 03:49:13;;;;;;;9.30;5.60;;;9.40;99.90;;;;;;5091694;28;20061;-29
2022/04/25 03:51:39;;;;;;;9.32;6.00;;;9.40;99.90;;;;;;5092657;28;20024;-31
2022/04/25 03:54:05;;;;;;;10.68;5.53;;;9.40;99.90;;;;;;5092629;28;20019;-32
2022/04/25 03:59:15;;;;;;;11.90;6.50;;;9.30;99.90;;;;;;5091391;28;20035;-30
2022/04/25 04:01:41;;;;;;;19.58;6.43;;;9.30;99.90;;;;;;5091858;28;20053;-29
2022/04/25 04:04:06;;;;;;;13.07;5.82;;;9.30;99.90;;;;;;5093267;28;20020;-29
2022/04/25 04:06:32;;;;;;;11.68;5.60;;;9.20;99.90;;;;;;5099625;28;20515;-32
2022/04/25 04:08:58;;;;;;;17.85;5.93;;;9.10;99.90;;;;;;5091643;28;20431;-31
2022/04/25 04:11:46;;;;;;;12.23;6.05;;;9.10;99.90;;;;;;5092708;28;20477;-28
2022/04/25 04:14:10;;;;;;;14.38;5.65;;;9.00;99.90;;;;;;5093406;28;20044;-30
2022/04/25 04:16:36;;;;;;;11.32;6.30;;;8.90;99.90;;;;;;5097729;28;20089;-29
2022/04/25 04:19:01;;;;;;;13.27;6.70;;;8.90;99.90;;;;;;5091187;28;20476;-39
2022/04/25 04:21:27;;;;;;;12.02;6.35;;;9.00;99.90;;;;;;5098019;28;20533;-30
2022/04/25 04:23:53;;;;;;;15.13;6.28;;;9.00;99.90;;;;;;5096125;28;20077;-30
2022/04/25 04:26:18;;;;;;;12.43;6.60;;;9.00;99.90;;;;;;5104986;28;20107;-31
2022/04/25 04:28:44;;;;;;;12.45;6.78;;;9.00;99.90;;;;;;5097986;28;20043;-35
2022/04/25 04:31:09;;;;;;;19.80;7.53;;;9.00;99.90;;;;;;5095159;28;20476;-30
2022/04/25 04:33:35;;;;;;;13.18;6.80;;;8.90;99.90;;;;;;5092272;28;20024;-31
2022/04/25 04:36:19;;;;;;;10.75;6.55;;;9.00;99.90;;;;;;5096271;28;20072;-32
2022/04/25 04:38:46;;;;;;;13.18;7.18;;;9.00;99.90;;;;;;5107979;28;20524;-29
2022/04/25 04:41:12;;;;;;;13.60;7.55;;;8.90;99.90;;;;;;5096569;28;20522;-29
2022/04/25 04:43:38;;;;;;;13.98;7.05;;;9.00;99.90;;;;;;5096178;28;20472;-30
2022/04/25 04:46:03;;;;;;;12.35;7.15;;;8.90;99.90;;;;;;5096715;28;20105;-30
2022/04/25 04:48:29;;;;;;;12.02;7.25;;;8.90;99.90;;;;;;5094115;28;20032;-30
2022/04/25 04:50:58;;;;;;;15.80;7.00;;;8.80;99.90;;;;;;5095030;28;20032;-29
2022/04/25 04:53:23;;;;;;;18.83;7.57;;;8.90;99.90;;;;;;5092953;28;20495;-29
2022/04/25 04:55:51;;;;;;;15.73;7.28;;;8.90;99.90;;;;;;5095935;28;20019;-30
2022/04/25 04:58:18;;;;;;;15.57;7.55;;;8.90;99.90;;;;;;5095937;28;20103;-29
2022/04/25 05:00:44;;;;;;;14.95;7.57;;;8.90;99.90;;;;;;5094805;28;20028;-35
2022/04/25 05:03:13;;;;;;;11.75;7.22;;;8.90;99.90;;;;;;5092761;28;20548;-29
2022/04/25 05:05:39;;;;;;;13.38;7.07;;;8.90;99.90;;;;;;5095747;28;20085;-32
2022/04/25 05:08:05;;;;;;;17.30;7.63;;;9.00;99.90;;;;;;5096685;28;20070;-28
2022/04/25 05:10:30;;;;;;;13.82;7.53;;;8.90;99.90;;;;;;5106698;28;20471;-32
2022/04/25 05:12:56;;;;;;;24.52;7.90;;;8.80;99.90;;;;;;5101429;28;20024;-29
2022/04/25 05:15:22;;;;;;;18.70;8.45;;;8.90;99.90;;;;;;5093974;28;20028;-31
2022/04/25 05:17:49;;;;;;;16.70;8.00;;;9.00;99.90;;;;;;5093495;28;20395;-29
2022/04/25 05:20:17;;;;;;;14.60;7.70;;;9.00;99.90;;;;;;5112460;28;20031;-29
2022/04/25 05:22:44;;;;;;;19.77;9.27;;;9.00;99.90;;;;;;5116525;28;20047;-29
2022/04/25 05:25:14;;;;;;;12.93;7.47;;;8.90;99.90;;;;;;5109011;28;20468;-28
2022/04/25 05:27:41;;;;;;;14.65;8.48;;;8.90;99.90;;;;;;5098369;28;20031;-30
2022/04/25 05:30:07;;;;;;;17.98;7.65;;;8.90;99.90;;;;;;5094881;28;20032;-29
2022/04/25 05:32:47;;;;;;;17.90;7.00;;;8.90;99.90;;;;;;5094101;28;20345;-31
2022/04/25 05:35:18;;;;;;;12.60;7.03;;;8.90;99.90;;;;;;5104383;28;20145;-28
2022/04/25 05:37:44;;;;;;;19.17;8.15;;;8.90;99.90;;;;;;5095692;28;20043;-31
2022/04/25 05:40:11;;;;;;;16.48;8.00;;;8.90;99.90;;;;;;5094057;28;20036;-28
2022/04/25 05:42:39;;;;;;;13.63;7.80;;;8.90;99.90;;;;;;5093583;28;20419;-30
2022/04/25 05:45:06;;;;;;;12.45;7.28;;;8.90;99.90;;;;;;5095625;28;20055;-34
2022/04/25 05:47:33;;;;;;;18.92;8.45;;;8.80;99.90;;;;;;5091860;28;20032;-28
2022/04/25 05:52:52;;;;;;;15.23;8.85;;;8.70;99.90;;;;;;5073949;28;20024;-33
2022/04/25 05:55:18;;;;;;;15.68;8.73;;;8.80;99.90;;;;;;5094652;28;20468;-29
2022/04/25 05:57:43;;;;;;;20.80;8.75;;;8.70;99.90;;;;;;5094387;28;20024;-33
2022/04/25 06:00:11;;;;;;;17.80;9.57;;;8.70;99.90;;;;;;5095260;28;20187;-32
2022/04/25 06:02:38;;;;;;;17.42;9.35;;;8.70;99.90;;;;;;5093468;28;20047;-28
2022/04/25 06:05:05;;;;;;;13.82;8.90;;;8.70;99.90;;;;;;5093587;28;20031;-29
2022/04/25 06:07:34;;;;;;;20.63;9.93;;;8.70;99.90;;;;;;5093637;28;20532;-31
2022/04/25 06:10:01;;;;;;;22.90;10.13;;;8.70;99.90;;;;;;5094142;28;20625;-30
2022/04/25 06:12:30;;;;;;;17.17;9.45;;;8.70;99.90;;;;;;5095162;28;20475;-29
2022/04/25 06:15:00;;;;;;;17.23;9.88;;;8.60;99.90;;;;;;5093250;28;20161;-36
2022/04/25 06:17:26;;;;;;;17.52;10.40;;;8.50;99.90;;;;;;5093879;28;20477;-27
2022/04/25 06:19:51;;;;;;;22.45;10.43;;;8.40;99.90;;;;;;5092322;28;20055;-30
2022/04/25 06:22:18;;;;;;;21.58;10.07;;;8.40;99.90;;;;;;5092656;28;20120;-25
2022/04/25 06:24:44;;;;;;;24.42;9.90;;;8.40;99.90;;;;;;5092797;28;20020;-27
2022/04/25 06:27:09;;;;;;;21.48;10.07;;;8.30;99.90;;;;;;5094850;28;20073;-28
2022/04/25 06:29:36;;;;;;;22.23;9.82;;;8.30;99.90;;;;;;5091542;28;20502;-29
2022/04/25 06:32:05;;;;;;;23.05;10.85;;;8.30;99.90;;;;;;5090914;28;20032;-33
2022/04/25 06:34:34;;;;;;;21.38;10.32;;;8.20;99.90;;;;;;5091815;28;20032;-29
2022/04/25 06:36:59;;;;;;;23.95;11.95;;;8.30;99.90;;;;;;5091525;28;20534;-29
2022/04/25 06:39:25;;;;;;;25.25;12.00;;;8.30;99.90;;;;;;5092095;28;20067;-31
2022/04/25 06:41:51;;;;;;;26.27;12.10;;;8.30;99.90;;;;;;5089772;28;20399;-28
2022/04/25 06:44:16;;;;;;;22.33;11.10;;;8.30;99.90;;;;;;5092464;28;20016;-29
2022/04/25 06:46:43;;;;;;;29.15;13.07;;;8.40;99.90;;;;;;5086308;28;20038;-29
2022/04/25 06:49:21;;;;;;;20.52;11.45;;;8.30;99.90;;;;;;5091963;28;20035;-28
2022/04/25 06:51:58;;;;;;;25.33;11.52;;;8.40;99.90;;;;;;5094008;28;20062;-34
2022/04/25 06:54:25;;;;;;;26.63;11.18;;;8.40;99.90;;;;;;5085189;28;20028;-28
2022/04/25 06:56:51;;;;;;;26.75;12.32;;;8.30;99.90;;;;;;5091943;28;20031;-28
2022/04/25 06:59:18;;;;;;;27.48;12.75;;;8.40;99.90;;;;;;5093075;28;20118;-27
2022/04/25 07:01:44;;;;;;;25.17;11.68;;;8.40;99.90;;;;;;5093663;28;20479;-26
2022/04/25 07:04:11;;;;;;;24.23;12.68;;;8.40;99.90;;;;;;5091616;28;20043;-30
2022/04/25 07:06:37;;;;;;;31.08;14.10;;;8.40;99.90;;;;;;5073894;28;20025;-27
2022/04/25 07:09:04;;;;;;;32.08;13.05;;;8.50;99.90;;;;;;5092044;28;20517;-28
2022/04/25 07:11:30;;;;;;;24.55;12.98;;;8.60;99.90;;;;;;5094093;28;20024;-28
2022/04/25 07:13:55;;;;;;;30.65;13.20;;;8.60;99.90;;;;;;5105987;28;20472;-30
2022/04/25 07:16:24;;;;;;;31.05;13.02;;;8.60;99.90;;;;;;5114326;28;20421;-28
2022/04/25 07:18:50;;;;;;;25.70;12.43;;;8.60;99.90;;;;;;5106072;28;20115;-27
2022/04/25 07:29:29;;;;;;;24.92;11.13;;;8.60;99.90;;;;;;5096773;28;20445;-32
2022/04/25 07:31:54;;;;;;;23.17;12.27;;;8.60;99.90;;;;;;5101845;28;20028;-30
2022/04/25 07:34:21;;;;;;;26.63;12.02;;;8.70;99.90;;;;;;5090863;28;20480;-28
2022/04/25 07:36:55;;;;;;;30.60;11.70;;;8.70;99.90;;;;;;5092248;28;20481;-32
2022/04/25 07:39:21;;;;;;;25.50;11.82;;;8.60;99.90;;;;;;5104474;28;20036;-32
2022/04/25 07:41:48;;;;;;;28.45;11.32;;;8.70;99.90;;;;;;5096301;28;20051;-28
2022/04/25 07:44:14;;;;;;;22.92;10.50;;;8.70;99.90;;;;;;5090590;28;20039;-29
2022/04/25 07:46:45;;;;;;;29.52;12.35;;;8.70;99.90;;;;;;5103429;28;20046;-31
2022/04/25 07:49:11;;;;;;;24.48;11.15;;;8.60;99.90;;;;;;5113745;28;20080;-27
2022/04/25 07:51:40;;;;;;;24.95;11.50;;;8.70;99.90;;;;;;5091925;28;20040;-27
2022/04/25 07:54:06;;;;;;;29.98;11.65;;;8.60;99.90;;;;;;5092471;28;20024;-28
2022/04/25 07:56:32;;;;;;;24.70;11.57;;;8.70;99.90;;;;;;5091704;28;20018;-30
2022/04/25 07:59:00;;;;;;;25.25;12.15;;;8.70;99.90;;;;;;5092708;28;20511;-27
2022/04/25 08:01:27;;;;;;;20.15;10.88;;;8.70;99.90;;;;;;5091068;28;20024;-32
2022/04/25 08:03:54;;;;;;;22.92;11.55;;;8.70;99.90;;;;;;5091637;28;20020;-28
2022/04/25 08:06:22;;;;;;;27.20;11.70;;;8.70;99.90;;;;;;5093085;28;20048;-26
2022/04/25 08:08:49;;;;;;;26.58;12.40;;;8.60;99.90;;;;;;5092290;28;20051;-26
2022/04/25 08:11:15;;;;;;;25.02;12.07;;;8.60;99.90;;;;;;5090890;28;20032;-30
2022/04/25 08:19:09;;;;;;;24.05;11.32;;;8.60;99.90;;;;;;5092500;28;20487;-27
2022/04/25 08:21:37;;;;;;;26.02;11.48;;;8.70;99.90;;;;;;5091809;28;20024;-28
2022/04/25 08:24:03;;;;;;;;;;;8.70;99.90;;;;;;5091146;28;20111;-28
2022/04/25 08:26:28;;;;;;;22.05;10.93;;;8.70;99.90;;;;;;5088494;28;19908;-28
2022/04/25 08:28:54;;;;;;;19.75;10.40;;;8.70;99.90;;;;;;5081587;28;20533;-27
2022/04/25 08:31:21;;;;;;;26.10;10.80;;;8.80;99.90;;;;;;5102589;28;20110;-30
2022/04/25 08:33:50;;;;;;;22.80;11.03;;;8.80;99.90;;;;;;5092588;28;20028;-29
2022/04/25 08:36:16;;;;;;;19.70;11.77;;;8.90;99.90;;;;;;5091203;28;20410;-28
2022/04/25 08:38:43;;;;;;;21.42;11.20;;;8.90;99.90;;;;;;5091810;28;20438;-29
2022/04/25 08:41:17;;;;;;;22.73;10.47;;;8.90;99.90;;;;;;5097709;28;20460;-31
2022/04/25 08:43:43;;;;;;;19.13;9.60;;;8.90;99.90;;;;;;5092426;28;20277;-26
2022/04/25 08:46:10;;;;;;;17.88;9.75;;;8.90;99.90;;;;;;5084509;28;20556;-26
2022/04/25 08:48:38;;;;;;;22.05;10.25;;;8.90;99.90;;;;;;5086665;28;20020;-32
2022/04/25 08:51:04;;;;;;;18.70;8.97;;;9.00;99.90;;;;;;5090425;28;20035;-26
2022/04/25 08:53:32;;;;;;;21.55;10.63;;;8.90;99.90;;;;;;5088164;28;20281;-27
2022/04/25 08:56:00;;;;;;;19.08;9.45;;;8.90;99.90;;;;;;5088996;28;20494;-28
2022/04/25 08:58:27;;;;;;;22.77;11.00;;;8.90;99.90;;;;;;5087849;28;20021;-27
2022/04/25 09:00:53;;;;;;;21.52;10.55;;;8.90;99.90;;;;;;5085300;28;20616;-28
2022/04/25 09:03:19;;;;;;;17.80;10.10;;;8.80;99.90;;;;;;5083779;28;20115;-27
2022/04/25 09:05:44;;;;;;;20.42;10.63;;;8.80;99.90;;;;;;5084576;28;20024;-27
2022/04/25 09:08:10;;;;;;;22.58;10.50;;;8.70;99.90;;;;;;5089010;28;20081;-28
2022/04/25 09:10:38;;;;;;;23.38;10.82;;;8.60;99.90;;;;;;5091941;28;20111;-28
2022/04/25 09:13:03;;;;;;;21.13;10.75;;;8.50;99.90;;;;;;5096025;28;20024;-47
2022/04/25 09:15:29;;;;;;;19.00;10.73;;;8.60;99.90;;;;;;5096249;28;20032;-29
2022/04/25 09:17:55;;;;;;;20.60;10.45;;;8.60;99.90;;;;;;5096390;28;20012;-27
2022/04/25 09:20:22;;;;;;;21.38;10.55;;;8.60;99.90;;;;;;5095482;28;20025;-27
2022/04/25 09:22:48;;;;;;;20.90;11.38;;;8.60;99.90;;;;;;5104505;28;20119;-26
2022/04/25 09:25:16;;;;;;;23.50;11.60;;;8.60;99.90;;;;;;5094346;28;20020;-26
2022/04/25 09:27:43;;;;;;;13.90;7.22;;;8.60;99.90;;;;;;5087161;28;20536;-27
2022/04/25 09:30:18;;;;;;;23.42;10.73;;;8.70;99.90;;;;;;5086912;28;20028;-29
2022/04/25 09:32:45;;;;;;;21.20;10.57;;;8.70;99.90;;;;;;5087879;28;20043;-27
2022/04/25 09:35:32;;;;;;;19.48;10.02;;;8.80;99.90;;;;;;5098469;28;20506;-35
2022/04/25 09:38:00;;;;;;;27.08;11.07;;;8.80;99.90;;;;;;5092675;28;20028;-29
2022/04/25 09:40:28;;;;;;;18.50;9.70;;;8.70;99.90;;;;;;5093794;28;20074;-29
2022/04/25 09:43:05;;;;;;;20.15;10.48;;;8.60;99.90;;;;;;5095581;28;20069;-27
2022/04/25 09:45:32;;;;;;;19.10;10.70;;;8.70;99.90;;;;;;5095713;28;20380;-28
2022/04/25 09:47:59;;;;;;;21.40;10.00;;;8.80;99.90;;;;;;5095187;28;20480;-26
2022/04/25 09:50:27;;;;;;;19.48;10.55;;;8.70;99.90;;;;;;5095721;28;20491;-27
2022/04/25 09:52:58;;;;;;;18.15;9.50;;;8.80;99.90;;;;;;5095803;28;20517;-28
2022/04/25 09:55:26;;;;;;;19.83;10.07;;;8.70;99.90;;;;;;5094120;28;20515;-26
2022/04/25 09:57:52;;;;;;;30.40;12.02;;;8.70;99.90;;;;;;5095462;28;20027;-28
2022/04/25 10:00:33;;;;;;;24.27;10.00;;;8.70;99.90;;;;;;5095289;28;20024;-28
2022/04/25 10:03:01;;;;;;;17.58;9.63;;;8.70;99.90;;;;;;5095325;28;20024;-27
2022/04/25 10:05:40;;;;;;;28.85;11.55;;;8.70;99.90;;;;;;5095261;28;20020;-29
2022/04/25 10:08:08;;;;;;;24.92;11.15;;;8.80;99.90;;;;;;5095504;28;20020;-32
2022/04/25 10:10:34;;;;;;;29.00;11.68;;;8.80;99.90;;;;;;5095415;28;20024;-28
2022/04/25 10:13:01;;;;;;;24.25;12.02;;;8.90;99.90;;;;;;5095143;28;20415;-27
2022/04/25 10:15:27;;;;;;;25.02;11.40;;;9.00;99.90;;;;;;5093848;28;20577;-28
2022/04/25 10:17:55;;;;;;;21.27;11.02;;;9.00;99.90;;;;;;5094128;28;20024;-28
2022/04/25 10:20:21;;;;;;;20.63;10.95;;;9.10;99.90;;;;;;5094956;28;20088;-27
2022/04/25 10:22:46;;;;;;;22.30;10.93;;;9.10;99.90;;;;;;5094954;28;20103;-28
2022/04/25 10:25:12;;;;;;;25.77;11.48;;;9.10;99.90;;;;;;5094772;28;20459;-37
2022/04/25 10:27:41;;;;;;;21.77;11.50;;;9.30;99.90;;;;;;5094912;28;20380;-33
2022/04/25 10:30:16;;;;;;;19.92;10.52;;;9.40;99.90;;;;;;5093375;28;20039;-29
2022/04/25 10:32:42;;;;;;;25.98;11.07;;;9.50;99.90;;;;;;5093477;28;20514;-28
2022/04/25 10:35:14;;;;;;;24.63;10.80;;;9.60;99.90;;;;;;5094998;28;20012;-26
2022/04/25 10:37:42;;;;;;;22.02;10.25;;;9.70;99.90;;;;;;5094569;28;20126;-29
2022/04/25 10:40:09;;;;;;;27.35;11.43;;;9.70;99.90;;;;;;5094917;28;20024;-28
2022/04/25 10:45:59;;;;;;;21.00;10.35;;;9.80;99.90;;;;;;5094826;28;20086;-26
2022/04/25 10:48:26;;;;;;;22.75;11.63;;;9.90;99.90;;;;;;5094494;28;20132;-38
2022/04/25 10:51:12;;;;;;;19.02;10.45;;;9.90;99.90;;;;;;5094579;28;20489;-27
2022/04/25 10:54:00;;;;;;;20.95;9.60;;;10.00;99.90;;;;;;5094246;28;20024;-35
2022/04/25 10:56:30;;;;;;;26.10;10.77;;;10.20;99.90;;;;;;5094399;28;20020;-27
2022/04/25 10:59:20;;;;;;;18.38;10.02;;;10.30;99.90;;;;;;5094529;28;20460;-27
2022/04/25 11:01:46;;;;;;;21.65;9.60;;;10.50;99.90;;;;;;5094052;28;20095;-31
2022/04/25 11:04:14;;;;;;;18.23;10.38;;;10.50;99.90;;;;;;5094160;28;20070;-28
2022/04/25 11:06:40;;;;;;;20.15;9.50;;;10.50;99.90;;;;;;5094046;28;20479;-27
2022/04/25 11:09:06;;;;;;;22.58;9.65;;;10.40;99.90;;;;;;5094050;28;20084;-42
2022/04/25 11:11:46;;;;;;;20.17;10.45;;;10.40;99.90;;;;;;5093958;28;20523;-27
2022/04/25 11:14:14;;;;;;;17.13;9.48;;;10.20;99.90;;;;;;5093993;28;20024;-26
2022/04/25 11:16:40;;;;;;;19.08;9.60;;;10.10;99.90;;;;;;5094174;28;20107;-28
2022/04/25 11:19:09;;;;;;;17.40;9.65;;;10.00;99.90;;;;;;5094150;28;20017;-27
2022/04/25 11:21:41;;;;;;;20.98;8.95;;;10.00;99.90;;;;;;5094101;28;20020;-27
2022/04/25 11:24:27;;;;;;;24.17;10.05;;;10.00;99.90;;;;;;5093857;28;20097;-29
2022/04/25 11:26:53;;;;;;;27.60;9.30;;;10.00;99.90;;;;;;5093729;28;20024;-29
2022/04/25 11:29:19;;;;;;;15.60;8.98;;;10.00;99.90;;;;;;5093306;28;20027;-27
2022/04/25 11:31:45;;;;;;;20.02;9.73;;;10.10;99.90;;;;;;5093853;28;20020;-28
2022/04/25 11:34:14;;;;;;;21.67;9.65;;;10.10;99.90;;;;;;5093898;28;20157;-38
2022/04/25 11:36:42;;;;;;;22.30;9.85;;;10.10;99.90;;;;;;5093491;28;20044;-27
2022/04/25 11:41:52;;;;;;;18.20;9.07;;;10.20;99.90;;;;;;5093742;28;20047;-27
2022/04/25 11:44:18;;;;;;;19.38;9.38;;;10.20;99.90;;;;;;5093762;28;20024;-27
2022/04/25 11:46:46;;;;;;;18.63;9.30;;;10.30;99.90;;;;;;5093416;28;20031;-31
2022/04/25 11:49:12;;;;;;;21.15;9.93;;;10.30;99.90;;;;;;5093442;28;20504;-28
2022/04/25 11:51:40;;;;;;;21.70;9.18;;;10.40;99.90;;;;;;5093339;28;20020;-27
2022/04/25 11:54:10;;;;;;;19.50;9.80;;;10.40;99.90;;;;;;5093391;28;20035;-28
2022/04/25 11:56:39;;;;;;;22.80;10.18;;;10.40;99.90;;;;;;5093635;28;20061;-29
2022/04/25 11:59:22;;;;;;;22.20;9.55;;;10.30;99.90;;;;;;5093206;28;20016;-28
2022/04/25 12:01:49;;;;;;;23.38;10.25;;;10.20;99.90;;;;;;5093204;28;20032;-28
2022/04/25 12:04:22;;;;;;;24.15;9.75;;;10.00;99.90;;;;;;5093289;28;20387;-27
2022/04/25 12:06:49;;;;;;;19.08;9.60;;;10.00;99.90;;;;;;5093539;28;20472;-28
2022/04/25 12:17:40;;;;;;;18.38;9.57;;;9.80;99.90;;;;;;5093376;28;20446;-30
2022/04/25 12:20:09;;;;;;;18.83;9.32;;;9.80;99.90;;;;;;5093163;28;20435;-28
2022/04/25 12:22:36;;;;;;;22.23;10.13;;;9.80;99.90;;;;;;5093358;28;20438;-29
2022/04/25 12:25:22;;;;;;;21.02;9.90;;;9.90;99.90;;;;;;5093160;28;20110;-28
2022/04/25 12:28:13;;;;;;;22.83;9.77;;;9.80;99.90;;;;;;5073180;28;20039;-27
2022/04/25 12:30:54;;;;;;;21.25;9.65;;;9.80;99.90;;;;;;5072981;28;20514;-29
2022/04/25 12:33:23;;;;;;;22.40;9.63;;;9.80;99.90;;;;;;5073152;28;20020;-30
2022/04/25 12:36:05;;;;;;;18.23;8.85;;;9.80;99.90;;;;;;5072816;28;20116;-29
2022/04/25 12:38:36;;;;;;;17.85;9.82;;;9.80;99.90;;;;;;5072770;28;20029;-29
2022/04/25 12:41:02;;;;;;;25.40;10.18;;;9.80;99.90;;;;;;5072888;28;20138;-28
2022/04/25 12:43:39;;;;;;;25.13;11.52;;;9.90;99.90;;;;;;5076727;28;20544;-28
2022/04/25 12:46:07;;;;;;;25.42;10.90;;;10.00;99.90;;;;;;5076959;28;20173;-29
2022/04/25 12:48:58;;;;;;;21.83;10.48;;;10.00;99.90;;;;;;5076745;28;20495;-28
2022/04/25 12:51:35;;;;;;;25.63;10.30;;;10.00;99.90;;;;;;5076614;28;20024;-27
2022/04/25 12:54:02;;;;;;;24.35;9.80;;;9.80;99.90;;;;;;5076511;28;20029;-28
2022/04/25 12:56:30;;;;;;;22.38;10.73;;;9.80;99.90;;;;;;5076420;28;20480;-28
2022/04/25 12:58:56;;;;;;;27.83;12.60;;;9.90;99.90;;;;;;5076263;28;20035;-29
2022/04/25 13:01:41;;;;;;;22.05;10.35;;;9.90;99.90;;;;;;5076466;28;20491;-27
2022/04/25 13:04:13;;;;;;;20.13;10.20;;;9.90;99.90;;;;;;5076513;28;20048;-30
2022/04/25 13:06:40;;;;;;;28.27;11.18;;;9.80;99.90;;;;;;5076281;28;20031;-27
2022/04/25 13:09:06;;;;;;;19.58;10.68;;;9.90;99.90;;;;;;5076467;28;20024;-33
2022/04/25 13:11:32;;;;;;;28.05;12.48;;;9.90;99.90;;;;;;5076355;28;20482;-29
2022/04/25 13:13:57;;;;;;;22.77;11.57;;;9.90;99.90;;;;;;5076118;28;20103;-30
2022/04/25 13:16:24;;;;;;;22.40;10.50;;;9.90;99.90;;;;;;5076091;28;20439;-31
2022/04/25 13:18:50;;;;;;;24.40;10.75;;;10.00;99.90;;;;;;5076204;28;20499;-45
2022/04/25 13:21:17;;;;;;;28.05;11.82;;;10.00;99.90;;;;;;5075952;28;20078;-36
2022/04/25 13:23:42;;;;;;;24.70;11.18;;;10.10;99.90;;;;;;5076223;28;20035;-36
2022/04/25 13:26:09;;;;;;;19.25;9.80;;;10.10;99.90;;;;;;5083912;28;20119;-36